Time;durP1;ratioP1;P1;durP2;ratioP2;P2;SDS_P1;SDS_P2;PMS_P1;PMS_P2;Temp;Humidity;BMP_temperature;BMP_pressure;BME280_temperature;BME280_humidity;BME280_pressure;Samples;Min_cycle;Max_cycle;Signal;HPM_P1;HPM_P2
2023/02/08 00:12:10;;;;;;;;;;;;;;;;;;;;;
2023/02/08 00:14:36;;;;;;;14.20;9.02;;;1.20;99.90;;;;;;6365751;22;20257;-87
2023/02/08 00:17:02;;;;;;;14.23;8.60;;;1.20;99.90;;;;;;6338754;22;20181;-87
2023/02/08 00:19:27;;;;;;;15.20;9.50;;;1.20;99.90;;;;;;6367904;22;20667;-87
2023/02/08 00:21:53;;;;;;;15.77;9.60;;;1.20;99.90;;;;;;6367104;22;20185;-85
2023/02/08 00:24:18;;;;;;;13.33;9.37;;;1.20;99.90;;;;;;6367157;22;20186;-85
2023/02/08 00:26:44;;;;;;;16.37;9.07;;;1.20;99.90;;;;;;6365795;22;20154;-86
2023/02/08 00:29:21;;;;;;;16.70;9.10;;;1.20;99.90;;;;;;6339098;22;20146;-87
2023/02/08 00:32:19;;;;;;;12.68;7.93;;;1.20;99.90;;;;;;6338696;22;20150;-86
2023/02/08 00:37:36;;;;;;;12.98;8.55;;;1.20;99.90;;;;;;6346670;22;20552;-86
2023/02/08 00:40:04;;;;;;;12.83;8.10;;;1.20;99.90;;;;;;6367412;22;20151;-87
2023/02/08 00:42:30;;;;;;;15.07;8.05;;;1.20;99.90;;;;;;6339514;22;20504;-85
2023/02/08 00:44:56;;;;;;;16.10;8.80;;;1.20;99.90;;;;;;6339629;22;20211;-85
2023/02/08 00:47:23;;;;;;;12.30;8.35;;;1.20;99.90;;;;;;6368486;22;20365;-87
2023/02/08 00:49:48;;;;;;;14.23;8.45;;;1.20;99.90;;;;;;6339145;22;20158;-88
2023/02/08 00:52:17;;;;;;;12.83;8.77;;;1.20;99.90;;;;;;6367941;22;20174;-86
2023/02/08 00:54:43;;;;;;;15.05;9.40;;;1.10;99.90;;;;;;6368413;22;20199;-87
2023/02/08 00:57:08;;;;;;;13.87;9.00;;;1.10;99.90;;;;;;6340771;22;20193;-87
2023/02/08 00:59:34;;;;;;;15.40;8.43;;;1.10;99.90;;;;;;6340271;22;20849;-88
2023/02/08 01:01:59;;;;;;;15.40;8.70;;;1.10;99.90;;;;;;6338719;22;20162;-86
2023/02/08 01:04:25;;;;;;;16.70;10.10;;;1.00;99.90;;;;;;6367538;22;20178;-87
2023/02/08 01:06:51;;;;;;;17.93;10.27;;;1.00;99.90;;;;;;6339242;22;20188;-87
2023/02/08 01:09:16;;;;;;;13.70;8.40;;;0.90;99.90;;;;;;6340219;22;20214;-85
2023/02/08 01:11:42;;;;;;;14.20;9.10;;;0.90;99.90;;;;;;6339740;22;20161;-87
2023/02/08 01:14:08;;;;;;;14.40;9.80;;;0.80;99.90;;;;;;6339386;22;20177;-86
2023/02/08 01:16:33;;;;;;;15.73;9.20;;;0.80;99.90;;;;;;6368655;22;20460;-84
2023/02/08 01:19:01;;;;;;;14.67;9.70;;;0.70;99.90;;;;;;6367202;22;20256;-87
2023/02/08 01:21:30;;;;;;;16.75;8.57;;;0.60;99.90;;;;;;6339980;22;20164;-85
2023/02/08 01:23:56;;;;;;;16.20;9.40;;;0.60;99.90;;;;;;6364843;22;20162;-87
2023/02/08 01:26:23;;;;;;;17.15;9.23;;;0.60;99.90;;;;;;6367344;22;20147;-87
2023/02/08 01:28:49;;;;;;;15.27;9.05;;;0.60;99.90;;;;;;6340404;22;20161;-88
2023/02/08 01:31:18;;;;;;;16.30;10.25;;;0.60;99.90;;;;;;6340198;22;20158;-87
2023/02/08 01:33:44;;;;;;;13.05;8.07;;;0.60;99.90;;;;;;6339550;22;20280;-86
2023/02/08 01:36:11;;;;;;;18.70;9.27;;;0.60;99.90;;;;;;6366383;22;20565;-87
2023/02/08 01:38:37;;;;;;;15.13;9.00;;;0.60;99.90;;;;;;6368239;22;20380;-87
2023/02/08 01:41:05;;;;;;;12.23;8.27;;;0.60;99.90;;;;;;6366581;22;20582;-87
2023/02/08 01:43:34;;;;;;;18.92;10.10;;;0.60;99.90;;;;;;6367167;22;20552;-85
2023/02/08 01:46:00;;;;;;;17.40;9.90;;;0.50;99.90;;;;;;6367286;22;20576;-87
2023/02/08 01:48:34;;;;;;;13.50;8.73;;;0.50;99.90;;;;;;6339822;22;20155;-87
2023/02/08 01:51:10;;;;;;;15.43;9.25;;;0.50;99.90;;;;;;6367322;22;20826;-87
2023/02/08 01:53:36;;;;;;;15.43;9.90;;;0.50;99.90;;;;;;6339682;22;20165;-86
2023/02/08 01:56:07;;;;;;;18.13;8.90;;;0.50;99.90;;;;;;6339644;22;20174;-86
2023/02/08 01:58:36;;;;;;;13.77;9.23;;;0.50;99.90;;;;;;6337754;22;20150;-87
2023/02/08 02:01:02;;;;;;;15.07;9.27;;;0.50;99.90;;;;;;6368290;22;20154;-85
2023/02/08 02:03:28;;;;;;;17.17;9.65;;;0.50;99.90;;;;;;6368032;22;20193;-85
2023/02/08 02:06:00;;;;;;;14.40;9.80;;;0.50;99.90;;;;;;6368885;22;20166;-88
2023/02/08 02:08:26;;;;;;;16.33;10.00;;;0.50;99.90;;;;;;6339611;22;20253;-87
2023/02/08 02:10:52;;;;;;;14.43;9.80;;;0.50;99.90;;;;;;6368515;22;20147;-87
2023/02/08 02:13:26;;;;;;;15.13;9.33;;;0.50;99.90;;;;;;6339906;22;20162;-86
2023/02/08 02:15:52;;;;;;;15.48;9.25;;;0.50;99.90;;;;;;6339274;22;20627;-87
2023/02/08 02:18:25;;;;;;;17.17;9.57;;;0.50;99.90;;;;;;6368875;22;20344;-86
2023/02/08 02:21:09;;;;;;;15.93;10.48;;;0.50;99.90;;;;;;6369089;22;20134;-86
2023/02/08 02:24:22;;;;;;;13.32;9.48;;;0.50;99.90;;;;;;6340375;22;20189;-87
2023/02/08 02:27:04;;;;;;;13.65;9.02;;;0.40;99.90;;;;;;6338583;22;20850;-87
2023/02/08 02:29:30;;;;;;;15.02;9.90;;;0.40;99.90;;;;;;6341038;22;20150;-85
2023/02/08 02:32:18;;;;;;;12.97;8.57;;;0.40;99.90;;;;;;6366694;22;20146;-86
2023/02/08 02:35:06;;;;;;;17.48;8.68;;;0.40;99.90;;;;;;6368371;22;20192;-87
2023/02/08 02:37:38;;;;;;;12.85;8.38;;;0.40;99.90;;;;;;6367326;22;20142;-87
2023/02/08 02:40:26;;;;;;;14.48;9.65;;;0.40;99.90;;;;;;6367934;22;20134;-87
2023/02/08 02:46:04;;;;;;;16.30;9.90;;;0.40;1.00;;;;;;6367274;22;20192;-87
2023/02/08 02:48:51;;;;;;;15.18;9.63;;;0.40;1.00;;;;;;6366267;22;20195;-86
2023/02/08 02:51:32;;;;;;;15.60;9.63;;;0.40;1.00;;;;;;6339731;22;20143;-87
2023/02/08 02:54:04;;;;;;;20.17;10.55;;;0.30;1.00;;;;;;6339138;22;20950;-88
2023/02/08 02:56:41;;;;;;;14.90;9.73;;;0.30;1.00;;;;;;6340128;22;20187;-87
2023/02/08 02:59:12;;;;;;;12.55;8.80;;;0.30;1.00;;;;;;6339842;22;20468;-86
2023/02/08 03:01:42;;;;;;;15.50;9.13;;;0.30;1.00;;;;;;6338457;22;20170;-86
2023/02/08 03:04:38;;;;;;;17.52;9.88;;;0.30;1.00;;;;;;6367602;22;20185;-85
2023/02/08 03:07:18;;;;;;;15.45;9.15;;;0.30;1.00;;;;;;6339028;22;20181;-87
2023/02/08 03:10:20;;;;;;;13.93;10.30;;;0.40;1.00;;;;;;6339502;22;20166;-86
2023/02/08 03:13:11;;;;;;;12.18;9.52;;;0.40;1.00;;;;;;6338650;22;20146;-86
2023/02/08 03:16:04;;;;;;;17.90;10.10;;;0.40;1.00;;;;;;6339798;22;20174;-86
2023/02/08 03:19:19;;;;;;;12.73;8.80;;;0.40;1.00;;;;;;6366926;22;20146;-85
2023/02/08 03:22:07;;;;;;;15.52;9.93;;;0.30;1.00;;;;;;6339070;22;20652;-84
2023/02/08 03:24:52;;;;;;;16.58;10.65;;;0.30;1.00;;;;;;6337972;22;20296;-86
2023/02/08 03:27:37;;;;;;;18.88;10.30;;;0.30;1.00;;;;;;6367575;22;20141;-87
2023/02/08 03:30:21;;;;;;;18.25;10.15;;;0.30;1.00;;;;;;6339460;22;20191;-87
2023/02/08 03:32:56;;;;;;;19.38;11.38;;;0.30;1.00;;;;;;6339923;22;20161;-86
2023/02/08 03:35:28;;;;;;;16.08;10.80;;;0.30;1.00;;;;;;6366762;22;20192;-87
2023/02/08 03:38:18;;;;;;;16.88;9.68;;;0.20;1.00;;;;;;6341834;22;20161;-86
2023/02/08 03:40:49;;;;;;;18.20;10.65;;;0.20;1.00;;;;;;6367927;22;20131;-87
2023/02/08 03:43:25;;;;;;;20.70;11.82;;;0.20;1.00;;;;;;6367682;22;20160;-86
2023/02/08 03:45:59;;;;;;;20.73;11.60;;;0.10;1.00;;;;;;6340888;22;20176;-86
2023/02/08 03:48:27;;;;;;;17.15;10.45;;;0.10;1.00;;;;;;6373629;22;20134;-87
2023/02/08 03:50:55;;;;;;;18.88;11.30;;;0.00;1.00;;;;;;6369279;22;20520;-86
2023/02/08 03:53:23;;;;;;;20.35;11.77;;;0.00;1.00;;;;;;6339977;22;20154;-85
2023/02/08 03:55:54;;;;;;;15.70;11.88;;;0.00;1.00;;;;;;6339184;22;20201;-86
2023/02/08 03:58:29;;;;;;;25.38;12.23;;;-0.10;1.00;;;;;;6367142;22;20214;-86
2023/02/08 04:01:06;;;;;;;17.38;10.57;;;-0.10;1.00;;;;;;6339483;22;20207;-86
2023/02/08 04:03:36;;;;;;;19.35;12.05;;;-0.10;1.00;;;;;;6339982;22;20178;-85
2023/02/08 04:06:02;;;;;;;22.08;13.02;;;-0.10;1.00;;;;;;6369708;22;20204;-88
2023/02/08 04:08:27;;;;;;;18.33;11.93;;;-0.20;1.00;;;;;;6368912;22;20157;-87
2023/02/08 04:10:53;;;;;;;17.30;11.53;;;-0.20;1.00;;;;;;6368963;22;20372;-87
2023/02/08 04:13:24;;;;;;;22.97;12.77;;;-0.20;1.00;;;;;;6367691;22;20157;-86
2023/02/08 04:15:53;;;;;;;17.45;11.93;;;-0.20;1.00;;;;;;6342084;22;20174;-86
2023/02/08 04:18:18;;;;;;;19.90;11.25;;;-0.20;1.00;;;;;;6369769;22;20172;-87
2023/02/08 04:20:47;;;;;;;18.00;11.03;;;-0.20;1.00;;;;;;6342072;22;20490;-87
2023/02/08 04:23:21;;;;;;;18.98;9.90;;;-0.20;1.00;;;;;;6341698;22;20154;-87
2023/02/08 04:25:47;;;;;;;20.25;12.10;;;-0.30;1.00;;;;;;6341367;22;20178;-87
2023/02/08 04:28:15;;;;;;;22.57;11.73;;;-0.30;1.00;;;;;;6369254;22;20142;-87
2023/02/08 04:30:41;;;;;;;17.90;11.30;;;-0.30;1.00;;;;;;6340369;22;20154;-87
2023/02/08 04:33:11;;;;;;;68.00;13.30;;;-0.30;1.00;;;;;;6369171;22;20602;-87
2023/02/08 04:35:37;;;;;;;17.92;11.32;;;-0.30;1.00;;;;;;6341124;22;20203;-86
2023/02/08 04:38:03;;;;;;;19.00;11.97;;;-0.30;1.00;;;;;;6341584;22;20146;-87
2023/02/08 04:40:29;;;;;;;18.35;11.30;;;-0.30;1.00;;;;;;6369068;22;20157;-87
2023/02/08 04:47:04;;;;;;;18.08;11.48;;;-0.30;1.00;;;;;;6360998;22;20286;-86
2023/02/08 05:07:26;;;;;;;21.88;12.50;;;-0.40;1.00;;;;;;6361783;22;20201;-87
2023/02/08 05:10:18;;;;;;;20.25;11.70;;;-0.50;1.00;;;;;;6339325;22;20591;-87
2023/02/08 05:27:04;;;;;;;32.10;13.88;;;-0.50;1.00;;;;;;6325088;22;20182;-87
2023/02/08 05:37:00;;;;;;;21.40;10.13;;;-0.40;1.00;;;;;;6184338;23;20189;-86
2023/02/08 05:40:26;;;;;;;17.70;12.02;;;-0.40;1.00;;;;;;6212878;23;20236;-87
2023/02/08 05:50:06;;;;;;;16.42;10.55;;;-0.50;4.20;;;;;;6238872;23;20622;-86
2023/02/08 06:00:06;;;;;;;;;;;;;;;;;;;;;
2023/02/08 06:03:01;;;;;;;16.40;10.73;;;-0.60;7.80;;;;;;6336955;22;20668;-87
2023/02/08 06:06:15;;;;;;;;;;;;;;;;;;;;;
2023/02/08 06:08:41;;;;;;;16.73;9.85;;;-0.70;48.60;;;;;;6335785;22;20250;-87
2023/02/08 06:11:06;;;;;;;17.17;11.33;;;-0.70;79.40;;;;;;6308849;22;20182;-87
2023/02/08 06:13:32;;;;;;;19.43;11.23;;;-0.70;99.90;;;;;;6308911;22;20157;-87
2023/02/08 06:19:34;;;;;;;17.40;10.57;;;-0.70;99.90;;;;;;6337133;22;20367;-87
2023/02/08 06:22:00;;;;;;;17.60;11.48;;;-0.70;99.90;;;;;;6309303;22;20271;-87
2023/02/08 06:24:25;;;;;;;20.60;10.80;;;-0.70;99.90;;;;;;6336087;22;20759;-86
2023/02/08 06:26:51;;;;;;;15.03;10.67;;;-0.70;99.90;;;;;;6335497;22;20201;-87
2023/02/08 06:29:19;;;;;;;16.57;10.07;;;-0.70;99.90;;;;;;6307202;22;20234;-87
2023/02/08 06:31:44;;;;;;;17.00;10.02;;;-0.70;99.90;;;;;;6308801;22;20155;-87
2023/02/08 06:34:10;;;;;;;17.60;11.10;;;-0.70;99.90;;;;;;6336266;22;20254;-86
2023/02/08 06:36:38;;;;;;;19.00;9.90;;;-0.70;99.90;;;;;;6337270;22;20488;-87
2023/02/08 06:39:09;;;;;;;19.38;10.35;;;-0.70;99.90;;;;;;6335772;22;20151;-87
2023/02/08 06:41:37;;;;;;;18.33;11.15;;;-0.70;99.90;;;;;;6308050;22;20193;-87
2023/02/08 06:45:13;;;;;;;18.15;11.15;;;-0.70;99.90;;;;;;6335680;22;20189;-87
2023/02/08 06:52:03;;;;;;;16.73;9.82;;;-0.70;99.90;;;;;;6095810;23;20187;-87
2023/02/08 06:54:29;;;;;;;16.30;9.90;;;-0.60;99.90;;;;;;6122496;23;20172;-86
2023/02/08 06:56:58;;;;;;;22.88;10.90;;;-0.60;99.90;;;;;;6213287;23;20157;-87
2023/02/08 06:59:23;;;;;;;14.32;10.32;;;-0.60;99.90;;;;;;6295254;22;20608;-87
2023/02/08 07:01:49;;;;;;;17.93;10.50;;;-0.60;99.90;;;;;;6316033;22;20212;-86
2023/02/08 07:04:15;;;;;;;18.05;10.77;;;-0.50;99.90;;;;;;6318734;22;20651;-86
2023/02/08 07:06:46;;;;;;;14.63;9.50;;;-0.30;99.90;;;;;;6344790;22;20158;-85
2023/02/08 07:09:11;;;;;;;13.88;9.73;;;-0.20;47.00;;;;;;6346435;22;20167;-85
2023/02/08 07:11:40;;;;;;;15.93;9.93;;;-0.10;1.00;;;;;;6318244;22;20150;-85
2023/02/08 07:14:05;;;;;;;13.65;8.77;;;0.00;1.00;;;;;;6345252;22;20650;-85
2023/02/08 07:16:31;;;;;;;17.60;9.60;;;0.00;1.00;;;;;;6342737;22;20151;-85
2023/02/08 07:18:56;;;;;;;16.80;10.10;;;0.10;1.00;;;;;;6342873;22;20194;-85
2023/02/08 07:21:23;;;;;;;22.97;11.20;;;0.10;1.00;;;;;;6310825;22;20155;-85
2023/02/08 07:23:48;;;;;;;17.95;10.73;;;0.20;1.00;;;;;;6340693;22;20197;-84
2023/02/08 07:26:14;;;;;;;15.17;9.67;;;0.20;1.00;;;;;;6343594;22;20174;-84
2023/02/08 07:28:42;;;;;;;13.33;9.43;;;0.20;1.00;;;;;;6345241;22;20178;-85
2023/02/08 07:31:11;;;;;;;14.75;9.13;;;0.20;1.00;;;;;;6319131;22;20593;-86
2023/02/08 07:33:37;;;;;;;14.88;9.55;;;0.30;1.00;;;;;;6341595;22;20249;-83
2023/02/08 07:36:04;;;;;;;19.90;9.80;;;0.40;1.00;;;;;;6344335;22;20167;-85
2023/02/08 07:38:32;;;;;;;17.27;11.05;;;1.10;1.00;;;;;;6315439;22;20384;-86
2023/02/08 07:41:09;;;;;;;18.25;9.98;;;3.60;99.90;;;;;;6341883;22;20143;-86
2023/02/08 07:43:36;;;;;;;13.93;9.80;;;6.70;99.90;;;;;;6310124;22;20238;-85
2023/02/08 07:46:20;;;;;;;14.30;10.67;;;9.00;99.90;;;;;;6338330;22;20742;-87
2023/02/08 07:48:48;;;;;;;15.43;10.20;;;11.00;99.90;;;;;;6337400;22;20357;-88
2023/02/08 07:51:15;;;;;;;20.47;10.83;;;12.40;99.90;;;;;;6335699;22;20396;-86
2023/02/08 07:53:40;;;;;;;13.80;11.40;;;13.70;99.90;;;;;;6309044;22;20387;-87
2023/02/08 07:56:06;;;;;;;13.37;10.63;;;14.70;99.90;;;;;;6337215;22;20875;-87
2023/02/08 07:58:31;;;;;;;15.10;11.57;;;15.60;99.90;;;;;;6307378;22;20546;-86
2023/02/08 08:01:00;;;;;;;14.07;10.20;;;16.30;99.90;;;;;;6336390;22;20147;-87
2023/02/08 08:03:25;;;;;;;13.27;10.53;;;17.10;99.90;;;;;;6308423;22;20505;-85
2023/02/08 08:05:52;;;;;;;14.83;10.80;;;17.70;99.90;;;;;;6337045;22;20502;-87
2023/02/08 08:08:17;;;;;;;14.00;11.50;;;18.20;99.90;;;;;;6335154;22;20208;-87
2023/02/08 08:10:43;;;;;;;13.83;11.10;;;18.50;99.90;;;;;;6336492;22;20365;-86
2023/02/08 08:13:09;;;;;;;13.97;12.50;;;18.90;99.90;;;;;;6333232;22;20220;-87
2023/02/08 08:15:35;;;;;;;14.20;11.80;;;19.60;99.90;;;;;;6334854;22;20398;-87
2023/02/08 08:18:00;;;;;;;14.17;11.83;;;20.10;99.90;;;;;;6335878;22;20246;-87
2023/02/08 08:20:26;;;;;;;13.87;10.73;;;20.50;99.90;;;;;;6335873;22;20222;-86
2023/02/08 08:22:52;;;;;;;11.60;10.40;;;20.70;99.90;;;;;;6335701;22;20157;-85
2023/02/08 08:25:17;;;;;;;15.80;11.60;;;20.90;99.90;;;;;;6335416;22;20189;-85
2023/02/08 08:27:43;;;;;;;12.40;10.90;;;21.00;99.90;;;;;;6336851;22;20152;-88
2023/02/08 08:30:11;;;;;;;13.17;11.77;;;21.30;99.90;;;;;;6336196;22;20148;-89
2023/02/08 08:32:37;;;;;;;12.43;11.13;;;21.40;99.90;;;;;;6336018;22;20147;-88
2023/02/08 08:35:03;;;;;;;13.10;10.93;;;21.30;99.90;;;;;;6337478;22;20456;-87
2023/02/08 08:37:29;;;;;;;12.00;10.70;;;21.50;99.90;;;;;;6308749;22;20392;-87
2023/02/08 08:40:57;;;;;;;13.07;11.40;;;21.50;99.90;;;;;;6337086;22;20373;-85
2023/02/08 08:43:46;;;;;;;13.23;11.60;;;21.80;99.90;;;;;;6241269;22;20736;-87
2023/02/08 08:46:24;;;;;;;15.50;11.60;;;21.90;99.90;;;;;;6309165;22;20413;-86
2023/02/08 08:48:58;;;;;;;14.73;10.87;;;22.50;99.90;;;;;;6311569;22;20377;-84
2023/02/08 08:54:45;;;;;;;13.17;10.17;;;23.20;99.90;;;;;;6337827;22;20913;-85
2023/02/08 08:57:40;;;;;;;;;;;;;;;;;;;;;
2023/02/08 09:00:18;;;;;;;11.83;10.60;;;22.70;99.90;;;;;;6332191;22;20768;-85
2023/02/08 09:06:45;;;;;;;11.97;10.77;;;23.40;99.90;;;;;;6319701;22;20751;-85
2023/02/08 09:09:29;;;;;;;10.67;9.67;;;23.40;99.90;;;;;;6301903;22;20889;-85
2023/02/08 09:12:38;;;;;;;10.30;9.30;;;23.20;99.90;;;;;;6310662;22;20377;-85
2023/02/08 09:15:31;;;;;;;10.60;9.33;;;22.70;99.90;;;;;;6337686;22;20389;-85
2023/02/08 09:18:00;;;;;;;12.47;10.33;;;22.60;99.90;;;;;;6307545;22;20401;-85
2023/02/08 09:20:26;;;;;;;11.47;9.90;;;22.80;99.90;;;;;;6307401;22;20472;-85
2023/02/08 09:22:52;;;;;;;14.17;10.63;;;22.50;99.90;;;;;;6338096;22;20406;-85
2023/02/08 09:25:18;;;;;;;10.90;9.80;;;21.90;99.90;;;;;;6334606;22;20682;-86
2023/02/08 09:27:43;;;;;;;16.20;10.67;;;21.50;99.90;;;;;;6306944;22;20392;-86
2023/02/08 09:30:12;;;;;;;12.53;10.07;;;21.60;99.90;;;;;;6335589;22;20491;-85
2023/02/08 09:32:41;;;;;;;12.80;10.20;;;21.50;99.90;;;;;;6308230;22;20594;-87
2023/02/08 09:35:13;;;;;;;11.47;10.27;;;21.70;99.90;;;;;;6307156;22;20406;-87
2023/02/08 09:37:39;;;;;;;12.30;10.23;;;21.70;99.90;;;;;;6335824;22;20861;-87
2023/02/08 09:40:08;;;;;;;10.73;9.60;;;21.60;99.90;;;;;;6337087;22;20456;-87
2023/02/08 09:43:10;;;;;;;12.10;10.33;;;21.50;99.90;;;;;;6340170;22;20148;-87
2023/02/08 09:46:10;;;;;;;13.73;10.30;;;21.30;99.90;;;;;;6339828;22;20438;-87
2023/02/08 09:48:39;;;;;;;11.87;10.10;;;21.10;99.90;;;;;;6310594;22;20375;-87
2023/02/08 09:51:29;;;;;;;12.80;11.43;;;21.20;99.90;;;;;;6337315;22;20387;-87
2023/02/08 09:54:05;;;;;;;11.60;10.40;;;21.50;99.90;;;;;;6312931;22;20371;-85
2023/02/08 09:56:35;;;;;;;12.00;9.80;;;21.30;99.90;;;;;;6340831;22;20439;-86
2023/02/08 09:59:22;;;;;;;10.80;9.70;;;21.20;99.90;;;;;;6339705;22;20401;-86
2023/02/08 10:02:17;;;;;;;16.20;11.27;;;21.00;99.90;;;;;;6343838;22;20912;-86
2023/02/08 10:05:03;;;;;;;13.43;9.90;;;21.40;99.90;;;;;;6313204;22;20943;-87
2023/02/08 10:07:30;;;;;;;12.30;9.67;;;22.10;99.90;;;;;;6343851;22;20505;-87
2023/02/08 10:10:05;;;;;;;10.07;9.00;;;22.40;99.90;;;;;;6347554;22;20404;-86
2023/02/08 10:12:33;;;;;;;9.93;8.57;;;22.40;99.90;;;;;;6346920;22;20384;-88
2023/02/08 10:15:31;;;;;;;12.43;10.70;;;21.90;99.90;;;;;;6343801;22;20831;-86
2023/02/08 10:18:18;;;;;;;12.97;9.47;;;21.60;99.90;;;;;;6343318;22;20400;-86
2023/02/08 10:21:08;;;;;;;12.83;9.43;;;21.10;99.90;;;;;;6309785;22;20378;-87
2023/02/08 10:23:36;;;;;;;11.40;9.40;;;19.90;99.90;;;;;;6340853;22;20505;-85
2023/02/08 10:26:11;;;;;;;11.97;10.67;;;18.90;99.90;;;;;;6340487;22;20394;-86
2023/02/08 10:28:54;;;;;;;15.00;11.00;;;18.10;99.90;;;;;;6313658;22;20376;-86
2023/02/08 10:31:40;;;;;;;16.53;9.70;;;17.00;99.90;;;;;;6344672;22;20360;-86
2023/02/08 10:34:33;;;;;;;11.00;9.43;;;15.60;99.90;;;;;;6342558;22;20401;-86
2023/02/08 10:37:03;;;;;;;14.10;9.60;;;14.30;99.90;;;;;;6341641;22;20370;-85
2023/02/08 10:39:32;;;;;;;14.20;9.73;;;13.00;99.90;;;;;;6345867;22;20397;-87
2023/02/08 10:41:58;;;;;;;14.83;9.50;;;12.30;99.40;;;;;;6343851;22;20384;-86
2023/02/08 10:45:07;;;;;;;13.50;9.07;;;11.80;98.30;;;;;;6339121;22;20433;-86
2023/02/08 10:47:44;;;;;;;10.67;8.40;;;11.20;97.90;;;;;;6338610;22;20380;-85
2023/02/08 10:50:36;;;;;;;16.67;9.90;;;10.90;97.00;;;;;;6340017;22;20464;-85
2023/02/08 10:53:03;;;;;;;13.00;8.43;;;10.60;96.70;;;;;;6337479;22;20410;-83
2023/02/08 10:55:31;;;;;;;17.00;9.17;;;10.20;95.90;;;;;;6311054;22;20401;-85
2023/02/08 11:01:18;;;;;;;18.63;8.30;;;9.60;95.60;;;;;;6338140;22;20345;-86
2023/02/08 11:04:06;;;;;;;11.00;7.37;;;9.30;95.20;;;;;;6337989;22;20417;-85
2023/02/08 11:06:35;;;;;;;12.10;8.67;;;9.20;96.30;;;;;;6337035;22;20142;-85
2023/02/08 11:09:01;;;;;;;10.93;7.83;;;9.40;96.40;;;;;;6336801;22;20397;-86
2023/02/08 11:11:33;;;;;;;9.37;6.70;;;9.80;98.20;;;;;;6339482;22;20468;-87
2023/02/08 11:14:30;;;;;;;12.80;9.00;;;10.80;99.90;;;;;;6314015;22;20430;-86
2023/02/08 11:17:28;;;;;;;9.77;7.23;;;12.80;99.90;;;;;;6192427;23;20514;-88
2023/02/08 11:20:03;;;;;;;10.67;8.00;;;14.50;99.90;;;;;;6312453;22;20413;-87
2023/02/08 11:22:35;;;;;;;9.93;7.80;;;16.10;99.90;;;;;;6307835;22;20386;-87
2023/02/08 11:25:25;;;;;;;8.20;7.07;;;17.10;99.90;;;;;;6308584;22;20436;-87
2023/02/08 11:28:02;;;;;;;11.00;7.90;;;17.90;99.90;;;;;;6306644;22;20934;-87
2023/02/08 11:30:29;;;;;;;12.10;7.60;;;19.00;99.90;;;;;;6336579;22;20364;-88
2023/02/08 11:33:17;;;;;;;8.63;7.10;;;19.80;99.90;;;;;;6335514;22;20371;-87
2023/02/08 11:35:51;;;;;;;10.50;7.97;;;20.00;99.90;;;;;;6335990;22;21010;-87
2023/02/08 11:38:18;;;;;;;10.30;7.30;;;20.20;99.90;;;;;;6333540;22;20682;-87
2023/02/08 11:41:26;;;;;;;18.10;7.90;;;20.00;99.90;;;;;;6306921;22;20392;-87
2023/02/08 11:44:04;;;;;;;10.77;8.40;;;19.80;99.90;;;;;;6292253;22;20818;-87
2023/02/08 11:46:36;;;;;;;11.03;7.60;;;19.90;99.90;;;;;;6333738;22;20356;-88
2023/02/08 11:49:02;;;;;;;10.90;7.60;;;20.40;99.90;;;;;;6308253;22;20373;-87
2023/02/08 11:51:33;;;;;;;9.90;7.40;;;20.60;99.90;;;;;;6306709;22;20384;-88
2023/02/08 11:53:59;;;;;;;8.93;7.03;;;20.50;99.90;;;;;;6335173;22;20363;-87
2023/02/08 11:56:31;;;;;;;11.23;6.97;;;20.30;99.90;;;;;;6305603;22;20381;-87
2023/02/08 11:59:02;;;;;;;11.40;7.53;;;20.60;99.90;;;;;;6334328;22;20373;-87
2023/02/08 12:01:38;;;;;;;11.93;6.00;;;20.80;99.90;;;;;;6333290;22;20522;-88
2023/02/08 12:04:10;;;;;;;8.97;5.70;;;20.80;99.90;;;;;;6304092;22;20444;-87
2023/02/08 12:06:48;;;;;;;6.87;6.17;;;20.80;99.90;;;;;;6332371;22;20721;-87
2023/02/08 12:09:16;;;;;;;9.33;6.10;;;20.80;99.90;;;;;;6333325;22;20739;-88
2023/02/08 12:11:44;;;;;;;8.20;6.43;;;20.80;99.90;;;;;;6306963;22;20384;-88
2023/02/08 12:14:41;;;;;;;6.73;5.43;;;20.60;99.90;;;;;;6333005;22;20397;-87
2023/02/08 12:17:49;;;;;;;6.43;5.33;;;20.50;99.90;;;;;;6333646;22;20697;-87
2023/02/08 12:20:34;;;;;;;7.10;4.87;;;20.20;99.90;;;;;;6306332;22;20388;-88
2023/02/08 12:23:30;;;;;;;8.77;6.70;;;19.90;99.90;;;;;;6334787;22;20369;-87
2023/02/08 12:26:11;;;;;;;8.43;6.20;;;19.80;99.90;;;;;;6336777;22;20477;-87
2023/02/08 12:28:56;;;;;;;6.93;5.70;;;19.50;99.90;;;;;;6335915;22;20429;-87
2023/02/08 12:31:59;;;;;;;6.43;4.80;;;19.20;99.90;;;;;;6310878;22;20371;-88
2023/02/08 12:34:40;;;;;;;8.63;5.80;;;19.00;99.90;;;;;;6338338;22;20390;-87
2023/02/08 12:41:05;;;;;;;7.13;4.80;;;18.70;99.90;;;;;;6325667;22;20388;-86
2023/02/08 12:43:40;;;;;;;6.37;5.03;;;18.60;99.90;;;;;;6309451;22;20425;-87
2023/02/08 12:46:20;;;;;;;5.40;4.90;;;18.50;99.90;;;;;;6335100;22;20401;-87
2023/02/08 12:49:24;;;;;;;7.93;5.40;;;18.90;99.90;;;;;;6336153;22;20682;-87
2023/02/08 12:51:58;;;;;;;6.67;4.90;;;19.10;99.90;;;;;;6337221;22;20458;-86
2023/02/08 12:54:41;;;;;;;9.17;6.13;;;18.80;99.90;;;;;;6338056;22;20402;-86
2023/02/08 12:57:13;;;;;;;7.87;5.20;;;18.80;99.90;;;;;;6309907;22;20454;-86
2023/02/08 12:59:50;;;;;;;6.87;4.47;;;18.60;99.90;;;;;;6337977;22;20364;-87
2023/02/08 13:02:24;;;;;;;7.07;4.90;;;18.50;99.90;;;;;;6308272;22;20769;-87
2023/02/08 13:04:58;;;;;;;5.73;3.80;;;18.40;99.90;;;;;;6307641;22;20429;-87
2023/02/08 13:07:30;;;;;;;9.53;7.80;;;18.50;99.90;;;;;;6308050;22;20397;-86
2023/02/08 13:10:07;;;;;;;10.13;7.23;;;18.80;99.90;;;;;;6337204;22;20841;-87
2023/02/08 13:12:38;;;;;;;8.40;5.00;;;19.20;99.90;;;;;;6334222;22;20816;-87
2023/02/08 13:15:15;;;;;;;7.93;4.90;;;19.10;99.90;;;;;;6334925;22;20817;-88
2023/02/08 13:17:54;;;;;;;7.57;5.70;;;18.60;99.90;;;;;;6306389;22;20383;-90
2023/02/08 13:20:40;;;;;;;9.83;6.23;;;18.20;99.00;;;;;;6306224;22;20384;-90
2023/02/08 13:23:29;;;;;;;6.63;5.50;;;18.00;98.90;;;;;;6308600;22;20384;-90
2023/02/08 13:26:12;;;;;;;6.63;5.63;;;17.70;98.00;;;;;;6335481;22;20396;-90
2023/02/08 13:28:40;;;;;;;7.53;6.33;;;17.50;96.80;;;;;;6307973;22;20377;-93
2023/02/08 13:31:16;;;;;;;11.63;5.17;;;17.30;96.00;;;;;;6308567;22;20382;-90
2023/02/08 13:33:44;;;;;;;8.00;5.43;;;17.20;95.40;;;;;;6305649;22;20386;-90
2023/02/08 13:36:35;;;;;;;7.00;5.97;;;17.30;96.20;;;;;;6308042;22;20687;-90
2023/02/08 13:39:04;;;;;;;8.77;5.73;;;17.10;95.40;;;;;;6307607;22;20386;-91
2023/02/08 13:41:33;;;;;;;6.20;5.17;;;16.70;93.90;;;;;;6332563;22;20403;-89
2023/02/08 13:44:25;;;;;;;8.23;4.87;;;16.50;93.20;;;;;;6310512;22;20427;-89
2023/02/08 13:46:51;;;;;;;7.63;5.20;;;16.40;92.90;;;;;;6309029;22;20373;-88
2023/02/08 13:50:06;;;;;;;5.37;4.27;;;16.30;92.90;;;;;;6335242;22;20468;-89
2023/02/08 13:52:37;;;;;;;4.80;4.00;;;16.20;92.30;;;;;;6210125;23;20457;-88
2023/02/08 13:55:34;;;;;;;11.80;4.90;;;16.00;91.50;;;;;;6208133;23;20452;-89
2023/02/08 13:58:04;;;;;;;5.90;4.17;;;15.70;90.70;;;;;;6308504;22;20427;-90
2023/02/08 14:00:32;;;;;;;5.83;4.30;;;15.60;90.40;;;;;;6336044;22;20400;-89
2023/02/08 14:03:19;;;;;;;10.37;5.87;;;15.60;90.50;;;;;;6335369;22;20374;-89
2023/02/08 14:06:00;;;;;;;8.47;6.40;;;15.60;91.00;;;;;;6336157;22;20755;-89
2023/02/08 14:08:55;;;;;;;13.90;6.70;;;15.40;91.50;;;;;;6336751;22;20385;-89
2023/02/08 14:11:32;;;;;;;9.93;7.30;;;15.30;91.10;;;;;;6319041;22;20456;-88
2023/02/08 14:14:23;;;;;;;11.97;6.87;;;15.30;91.50;;;;;;6335081;22;20360;-88
2023/02/08 14:17:06;;;;;;;7.57;6.30;;;15.10;91.60;;;;;;6334469;22;20463;-89
2023/02/08 14:19:37;;;;;;;10.03;6.67;;;15.10;91.90;;;;;;6336284;22;20813;-89
2023/02/08 14:22:12;;;;;;;11.83;7.23;;;15.10;92.10;;;;;;6336467;22;20387;-87
2023/02/08 14:24:42;;;;;;;18.50;6.37;;;15.30;92.80;;;;;;6334002;22;20487;-89
2023/02/08 14:27:27;;;;;;;9.77;6.43;;;15.30;93.00;;;;;;6334795;22;20433;-89
2023/02/08 14:30:33;;;;;;;12.80;6.53;;;15.20;92.90;;;;;;6305896;22;20388;-89
2023/02/08 14:33:08;;;;;;;9.10;6.40;;;15.30;93.70;;;;;;6206117;23;20496;-89
2023/02/08 14:35:36;;;;;;;17.20;7.00;;;15.20;92.90;;;;;;6291684;22;20399;-88
2023/02/08 14:38:23;;;;;;;8.27;5.50;;;14.90;92.40;;;;;;6333589;22;20370;-88
2023/02/08 14:40:52;;;;;;;7.83;5.47;;;14.70;91.70;;;;;;6306785;22;20395;-88
2023/02/08 14:43:17;;;;;;;10.30;5.83;;;14.40;91.00;;;;;;6307544;22;20376;-89
2023/02/08 14:45:48;;;;;;;11.03;6.67;;;14.20;90.20;;;;;;6332893;22;20426;-88
2023/02/08 14:48:24;;;;;;;10.10;5.67;;;14.10;90.70;;;;;;6334631;22;20136;-88
2023/02/08 14:50:54;;;;;;;13.97;6.87;;;14.20;91.10;;;;;;6334415;22;20366;-88
2023/02/08 14:53:35;;;;;;;14.77;6.53;;;14.10;91.20;;;;;;6334186;22;20402;-90
2023/02/08 14:56:29;;;;;;;7.97;5.77;;;13.90;90.50;;;;;;6334442;22;20389;-89
2023/02/08 14:59:06;;;;;;;9.30;6.60;;;13.70;90.30;;;;;;6333601;22;20446;-88
2023/02/08 15:01:47;;;;;;;8.37;5.07;;;13.50;89.10;;;;;;6333509;22;20424;-88
2023/02/08 15:04:16;;;;;;;7.37;5.37;;;13.40;88.70;;;;;;6334420;22;20425;-88